Terminal Aerodrome Forecast
Issued by NWS

Home | Current Version | Previous Version | Text Only | Print | Product List | Glossary On
Versions: 1 2 3 4 5 6 7 8 9 10 11 12 13 14 15 16 17 18 19 20 21 22 23 24 25 26 27
000
FTUS41 KOKX 272358
TAFSWF
TAF
KSWF 272358Z 2800/2906 12006KT P6SM SCT120
     FM280100 VRB05KT P6SM VCSH BKN120
     FM280300 VRB03KT 6SM BR SCT250
     FM280600 00000KT 5SM BR SCT250
      TEMPO 2810/2812 2SM BR
     FM281400 25006KT 6SM HZ SCT250
     FM281700 25009KT P6SM SCT050 SCT250
     FM290000 24004KT P6SM FEW050 SCT250
     FM290300 VRB03KT 5SM BR SCT250
      AMD NOT SKED=

USA.gov is the U.S. government's official web portal to all federal, state and local government web resources and services.